Time;durP1;ratioP1;P1;durP2;ratioP2;P2;SDS_P1;SDS_P2;PMS_P1;PMS_P2;Temp;Humidity;BMP_temperature;BMP_pressure;BME280_temperature;BME280_humidity;BME280_pressure;Samples;Min_cycle;Max_cycle;Signal;HPM_P1;HPM_P2
2021/12/13 00:01:29;;;;;;;97.70;25.95;;;9.80;99.90;;;;;;4989328;28;19925;-81
2021/12/13 00:04:19;;;;;;;97.88;25.83;;;9.80;99.90;;;;;;4993527;28;20041;-82
2021/12/13 00:06:56;;;;;;;97.00;26.17;;;9.80;99.90;;;;;;4979271;28;20137;-80
2021/12/13 00:09:28;;;;;;;97.57;26.60;;;9.80;99.90;;;;;;5002758;28;20406;-80
2021/12/13 00:11:58;;;;;;;101.75;28.45;;;9.90;99.90;;;;;;4978827;28;20171;-81
2021/12/13 00:14:33;;;;;;;107.95;28.80;;;9.90;99.90;;;;;;4984940;28;20080;-81
2021/12/13 00:17:03;;;;;;;106.97;29.15;;;9.90;99.90;;;;;;4975054;28;20040;-81
2021/12/13 00:19:55;;;;;;;113.00;29.67;;;9.90;99.90;;;;;;4990704;28;20417;-80
2021/12/13 00:22:25;;;;;;;100.30;31.48;;;9.90;99.90;;;;;;4975050;28;20036;-80
2021/12/13 00:24:52;;;;;;;120.47;34.35;;;9.90;99.90;;;;;;4977772;28;20050;-80
2021/12/13 00:27:25;;;;;;;99.72;29.58;;;9.90;99.90;;;;;;4995497;28;20660;-81
2021/12/13 00:29:58;;;;;;;87.47;27.52;;;10.10;99.90;;;;;;4974572;28;20042;-82
2021/12/13 00:32:46;;;;;;;97.78;27.90;;;10.00;99.90;;;;;;4971493;28;20049;-80
2021/12/13 00:35:21;;;;;;;93.45;27.52;;;10.00;99.90;;;;;;4986678;28;20844;-82
2021/12/13 00:37:54;;;;;;;99.63;27.73;;;10.00;99.90;;;;;;4993364;28;20038;-81
2021/12/13 00:40:25;;;;;;;85.30;27.42;;;9.90;99.90;;;;;;4991916;28;20042;-79
2021/12/13 00:43:01;;;;;;;93.47;26.30;;;10.00;99.90;;;;;;4987826;28;20038;-82
2021/12/13 00:45:34;;;;;;;78.75;25.30;;;9.90;99.90;;;;;;4982261;28;20053;-81
2021/12/13 00:48:01;;;;;;;75.88;24.48;;;10.00;99.90;;;;;;4975171;28;20717;-81
2021/12/13 00:50:46;;;;;;;74.85;23.92;;;10.00;99.90;;;;;;4975135;28;20502;-82
2021/12/13 00:53:15;;;;;;;;;;;9.90;99.90;;;;;;4989610;28;20656;-81
2021/12/13 00:55:43;;;;;;;65.65;21.23;;;9.90;99.90;;;;;;4977788;28;19956;-81
2021/12/13 00:58:19;;;;;;;60.17;21.73;;;9.90;99.90;;;;;;4981511;28;20041;-81
2021/12/13 01:00:57;;;;;;;54.83;20.65;;;9.90;99.90;;;;;;4980698;28;20456;-80
2021/12/13 01:03:32;;;;;;;50.83;20.27;;;9.90;99.90;;;;;;4983648;28;20543;-81
2021/12/13 01:06:26;;;;;;;64.45;20.60;;;9.90;99.90;;;;;;4989724;28;21698;-80
2021/12/13 01:09:10;;;;;;;61.28;20.02;;;9.90;99.90;;;;;;4993019;28;20045;-80
2021/12/13 01:11:52;;;;;;;52.47;19.38;;;9.90;99.90;;;;;;4950842;23;1114901;-57
2021/12/13 01:14:38;;;;;;;58.92;20.70;;;9.90;99.90;;;;;;4955481;28;20073;-56
2021/12/13 01:17:39;;;;;;;61.10;20.33;;;9.80;99.90;;;;;;4957745;28;22972;-58
2021/12/13 01:20:16;;;;;;;59.63;20.73;;;9.90;99.90;;;;;;4964608;28;20041;-55
2021/12/13 01:22:51;;;;;;;50.33;20.55;;;9.80;99.90;;;;;;4965001;28;20039;-56
2021/12/13 01:28:26;;;;;;;60.75;20.75;;;9.90;99.90;;;;;;4979251;28;20477;-55
2021/12/13 01:30:58;;;;;;;65.43;21.27;;;9.80;99.90;;;;;;4966432;28;20057;-57
2021/12/13 01:33:26;;;;;;;71.65;23.90;;;9.80;99.90;;;;;;4965066;28;20049;-58
2021/12/13 01:35:55;;;;;;;61.42;22.98;;;9.80;99.90;;;;;;4979652;28;20052;-57
2021/12/13 01:38:45;;;;;;;63.38;22.23;;;9.80;99.90;;;;;;4983739;28;20508;-56
2021/12/13 01:41:17;;;;;;;76.47;24.58;;;9.80;99.90;;;;;;4969446;28;20058;-57
2021/12/13 01:43:48;;;;;;;80.07;25.63;;;9.80;99.90;;;;;;4963306;28;20053;-57
2021/12/13 01:46:17;;;;;;;82.20;25.77;;;9.80;99.90;;;;;;4982062;28;20045;-56
2021/12/13 01:48:46;;;;;;;83.70;27.05;;;9.80;99.90;;;;;;4966579;28;20038;-56
2021/12/13 01:51:15;;;;;;;111.35;31.05;;;9.80;99.90;;;;;;4959545;28;20075;-55
2021/12/13 01:53:44;;;;;;;96.50;30.50;;;9.80;99.90;;;;;;4970588;28;20061;-57
2021/12/13 01:59:43;;;;;;;99.10;30.85;;;9.80;99.90;;;;;;4968702;28;20128;-57
2021/12/13 02:02:34;;;;;;;107.85;30.42;;;9.70;99.90;;;;;;4989544;28;20100;-57
2021/12/13 02:05:22;;;;;;;83.57;29.50;;;9.70;99.90;;;;;;4983172;28;20049;-57
2021/12/13 02:07:57;;;;;;;111.13;31.98;;;9.70;99.90;;;;;;4963751;28;20088;-57
2021/12/13 02:10:30;;;;;;;96.88;31.65;;;9.70;99.90;;;;;;4961793;28;20077;-57
2021/12/13 02:13:04;;;;;;;82.63;27.95;;;9.70;99.90;;;;;;4955557;28;20046;-57
2021/12/13 02:18:25;;;;;;;80.60;29.75;;;9.70;99.90;;;;;;4975495;28;20053;-58
2021/12/13 02:21:02;;;;;;;73.45;27.13;;;9.70;99.90;;;;;;4970670;28;20052;-58
2021/12/13 02:23:29;;;;;;;76.63;26.77;;;9.70;99.90;;;;;;4958515;28;20060;-57
2021/12/13 02:25:57;;;;;;;79.22;27.65;;;9.70;99.90;;;;;;4975096;28;20050;-57
2021/12/13 02:28:27;;;;;;;70.68;24.58;;;9.70;99.90;;;;;;4959642;28;20477;-57
2021/12/13 02:31:24;;;;;;;66.93;24.75;;;9.70;99.90;;;;;;4973815;28;20050;-57
2021/12/13 02:33:52;;;;;;;63.25;22.58;;;9.70;99.90;;;;;;4959875;28;20045;-57
2021/12/13 02:36:22;;;;;;;72.57;24.15;;;9.70;99.90;;;;;;4959071;28;20061;-57
2021/12/13 02:38:50;;;;;;;61.05;22.02;;;9.70;99.90;;;;;;4976077;28;20046;-53
2021/12/13 02:41:21;;;;;;;54.90;20.85;;;9.70;99.90;;;;;;4981041;28;20069;-55
2021/12/13 02:43:50;;;;;;;57.42;21.20;;;9.70;99.90;;;;;;4961632;28;20054;-56
2021/12/13 02:46:16;;;;;;;52.55;20.38;;;9.70;99.90;;;;;;4981099;28;20049;-57
2021/12/13 02:48:47;;;;;;;57.35;19.25;;;9.70;99.90;;;;;;4975252;28;20037;-56
2021/12/13 02:51:26;;;;;;;53.97;19.77;;;9.70;99.90;;;;;;4945683;28;20074;-56
2021/12/13 02:54:04;;;;;;;51.75;18.20;;;9.70;99.90;;;;;;4977203;28;20124;-56
2021/12/13 02:56:39;;;;;;;48.95;20.05;;;9.70;99.90;;;;;;4974688;28;20539;-57
2021/12/13 02:59:07;;;;;;;56.95;19.25;;;9.70;99.90;;;;;;4962306;28;20149;-55
2021/12/13 03:01:42;;;;;;;44.60;19.30;;;9.70;99.90;;;;;;4974379;28;20437;-58
2021/12/13 03:04:12;;;;;;;50.60;18.65;;;9.70;99.90;;;;;;4972983;28;20050;-57
2021/12/13 03:06:45;;;;;;;61.38;20.20;;;9.70;99.90;;;;;;4975158;28;20034;-57
2021/12/13 03:09:21;;;;;;;67.22;20.60;;;9.70;99.90;;;;;;4951731;28;22628;-55
2021/12/13 03:11:49;;;;;;;53.00;19.58;;;9.70;99.90;;;;;;4961673;28;20050;-56
2021/12/13 03:14:20;;;;;;;51.15;18.75;;;9.70;99.90;;;;;;4955056;28;20117;-56
2021/12/13 03:17:00;;;;;;;59.03;19.13;;;9.70;99.90;;;;;;4958814;28;20046;-53
2021/12/13 03:19:26;;;;;;;49.03;18.63;;;9.70;99.90;;;;;;4975435;28;20718;-58
2021/12/13 03:22:32;;;;;;;48.80;17.90;;;9.70;99.90;;;;;;4946352;28;20404;-56
2021/12/13 03:25:20;;;;;;;48.20;18.00;;;9.70;99.90;;;;;;4969618;28;20064;-56
2021/12/13 03:28:24;;;;;;;44.63;17.85;;;9.60;99.90;;;;;;4954624;28;20523;-57
2021/12/13 03:30:56;;;;;;;58.58;20.30;;;9.60;99.90;;;;;;4972555;28;20647;-57
2021/12/13 03:33:41;;;;;;;51.00;19.25;;;9.60;99.90;;;;;;4960272;28;20073;-56
2021/12/13 03:36:12;;;;;;;44.33;17.85;;;9.70;99.90;;;;;;4970094;28;20563;-55
2021/12/13 03:38:41;;;;;;;54.40;18.33;;;9.60;99.90;;;;;;4963279;28;20127;-58
2021/12/13 03:41:11;;;;;;;42.80;17.30;;;9.60;99.90;;;;;;4959159;28;20543;-57
2021/12/13 03:43:47;;;;;;;53.95;18.33;;;9.60;99.90;;;;;;4962337;28;20516;-53
2021/12/13 03:46:15;;;;;;;50.25;17.55;;;9.60;99.90;;;;;;4948000;28;20125;-56
2021/12/13 03:48:44;;;;;;;41.58;16.92;;;9.60;99.90;;;;;;4961926;28;20520;-57
2021/12/13 03:51:14;;;;;;;40.40;15.68;;;9.60;99.90;;;;;;4976396;28;20050;-56
2021/12/13 03:53:43;;;;;;;35.65;13.38;;;9.60;99.90;;;;;;4975019;28;20470;-58
2021/12/13 03:56:14;;;;;;;28.67;11.10;;;9.50;99.90;;;;;;4960965;28;20063;-58
2021/12/13 03:58:45;;;;;;;34.65;11.68;;;9.60;99.90;;;;;;4969791;28;20049;-56
2021/12/13 04:01:22;;;;;;;27.95;10.75;;;9.50;99.90;;;;;;4940954;28;21071;-57
2021/12/13 04:03:53;;;;;;;35.10;11.00;;;9.50;99.90;;;;;;4959962;28;20057;-58
2021/12/13 04:06:21;;;;;;;26.33;9.98;;;9.50;99.90;;;;;;4962919;28;20061;-57
2021/12/13 04:08:53;;;;;;;29.27;10.50;;;9.50;99.90;;;;;;4979815;28;20046;-57
2021/12/13 04:11:22;;;;;;;19.20;8.52;;;9.50;99.90;;;;;;4942482;28;21171;-56
2021/12/13 04:13:56;;;;;;;25.95;9.07;;;9.40;99.90;;;;;;4960425;28;20042;-56
2021/12/13 04:16:34;;;;;;;;;;;9.40;99.90;;;;;;4969435;28;20049;-57
2021/12/13 04:21:51;;;;;;;23.33;9.95;;;9.40;99.90;;;;;;4978515;28;20405;-53
2021/12/13 04:24:27;;;;;;;23.77;8.63;;;9.40;99.90;;;;;;4940397;28;20501;-57
2021/12/13 04:26:57;;;;;;;20.08;8.30;;;9.40;99.90;;;;;;4931751;28;20081;-56
2021/12/13 04:29:27;;;;;;;17.63;8.32;;;9.40;99.90;;;;;;4969323;28;20046;-55
2021/12/13 04:31:54;;;;;;;13.48;8.18;;;9.40;99.90;;;;;;4964404;28;20500;-54
2021/12/13 04:34:24;;;;;;;17.42;8.18;;;9.40;99.90;;;;;;4958228;28;20400;-56
2021/12/13 04:36:53;;;;;;;15.73;7.43;;;9.40;99.90;;;;;;4956010;28;20164;-57
2021/12/13 04:39:19;;;;;;;13.18;7.78;;;9.40;99.90;;;;;;4948853;28;20066;-57
2021/12/13 04:41:49;;;;;;;15.32;9.02;;;9.40;99.90;;;;;;4964035;28;20042;-57
2021/12/13 04:44:25;;;;;;;16.63;8.68;;;9.40;99.90;;;;;;4961227;28;20046;-55
2021/12/13 04:46:53;;;;;;;16.05;8.30;;;9.40;99.90;;;;;;4964342;28;20060;-57
2021/12/13 04:49:23;;;;;;;14.40;8.55;;;9.40;99.90;;;;;;4955486;28;20458;-56
2021/12/13 04:52:01;;;;;;;16.98;9.10;;;9.40;99.90;;;;;;4957155;28;20755;-55
2021/12/13 04:54:31;;;;;;;17.10;8.68;;;9.40;99.90;;;;;;4955514;28;20065;-57
2021/12/13 04:56:58;;;;;;;21.55;8.68;;;9.40;99.90;;;;;;4964601;28;20404;-56
2021/12/13 04:59:25;;;;;;;19.17;10.18;;;9.40;99.90;;;;;;4955397;28;20113;-56
2021/12/13 05:01:56;;;;;;;16.50;8.55;;;9.40;99.90;;;;;;4973953;28;20050;-56
2021/12/13 05:04:23;;;;;;;17.90;9.32;;;9.40;99.90;;;;;;4959971;28;21131;-57
2021/12/13 05:06:51;;;;;;;12.52;8.65;;;9.40;99.90;;;;;;4972930;28;20104;-56
2021/12/13 05:09:20;;;;;;;16.02;9.43;;;9.40;99.90;;;;;;4979612;28;20412;-57
2021/12/13 05:12:02;;;;;;;20.90;9.95;;;9.40;99.90;;;;;;4973695;28;20050;-56
2021/12/13 05:14:45;;;;;;;16.90;9.13;;;9.40;99.90;;;;;;4961239;28;20043;-57
2021/12/13 05:17:16;;;;;;;13.27;8.23;;;9.40;99.90;;;;;;4976030;28;20057;-56
2021/12/13 05:19:50;;;;;;;17.52;9.25;;;9.40;99.90;;;;;;4973494;28;20072;-56
2021/12/13 05:22:18;;;;;;;13.73;8.98;;;9.40;99.90;;;;;;4973776;28;20042;-55
2021/12/13 05:24:58;;;;;;;15.30;8.57;;;9.40;99.90;;;;;;4961688;28;20054;-56
2021/12/13 05:27:34;;;;;;;17.83;8.43;;;9.40;99.90;;;;;;4961389;28;20046;-57
2021/12/13 05:30:26;;;;;;;19.42;10.63;;;9.40;99.90;;;;;;4956462;28;20081;-53
2021/12/13 05:32:59;;;;;;;16.35;9.32;;;9.40;99.90;;;;;;4960568;28;20053;-55
2021/12/13 05:35:46;;;;;;;18.40;10.57;;;9.40;99.90;;;;;;4972805;28;20409;-58
2021/12/13 05:38:25;;;;;;;17.85;10.07;;;9.40;99.90;;;;;;4941403;28;20557;-56
2021/12/13 05:40:51;;;;;;;16.20;10.15;;;9.40;99.90;;;;;;4975986;28;20088;-55
2021/12/13 05:43:24;;;;;;;17.20;9.77;;;9.40;99.90;;;;;;4968057;28;20057;-55
2021/12/13 05:46:04;;;;;;;22.42;12.32;;;9.40;99.90;;;;;;4963383;28;20408;-57
2021/12/13 05:48:35;;;;;;;18.05;11.32;;;9.40;99.90;;;;;;4976925;28;20500;-56
2021/12/13 05:51:07;;;;;;;19.48;11.18;;;9.40;99.90;;;;;;4964203;28;20046;-57
2021/12/13 05:53:43;;;;;;;21.00;11.52;;;9.40;99.90;;;;;;4949524;28;21663;-53
2021/12/13 05:56:17;;;;;;;18.20;10.68;;;9.50;99.90;;;;;;4965648;28;20069;-56
2021/12/13 05:58:53;;;;;;;16.67;10.15;;;9.40;99.90;;;;;;4984193;28;20037;-55
2021/12/13 06:02:11;;;;;;;18.30;10.60;;;9.50;99.90;;;;;;4990315;28;20120;-57
2021/12/13 06:05:06;;;;;;;18.88;9.95;;;9.40;99.90;;;;;;4917417;28;20051;-56
2021/12/13 06:07:35;;;;;;;17.27;9.30;;;9.40;99.90;;;;;;4941919;28;20062;-55
2021/12/13 06:10:08;;;;;;;16.50;9.63;;;9.40;99.90;;;;;;4967884;28;20062;-56
2021/12/13 06:12:58;;;;;;;16.52;9.57;;;9.40;99.90;;;;;;4984596;28;20045;-54
2021/12/13 06:15:31;;;;;;;16.20;9.38;;;9.40;99.90;;;;;;4983266;28;20489;-53
2021/12/13 06:17:56;;;;;;;16.45;10.15;;;9.40;99.90;;;;;;4988418;28;20052;-56
2021/12/13 06:20:42;;;;;;;16.77;9.68;;;9.40;99.90;;;;;;4987555;28;21964;-54
2021/12/13 06:23:13;;;;;;;16.02;9.80;;;9.40;99.90;;;;;;4979804;28;20200;-57
2021/12/13 06:25:42;;;;;;;18.25;9.52;;;9.40;99.90;;;;;;4984748;28;20229;-56
2021/12/13 06:28:21;;;;;;;17.90;10.30;;;9.40;99.90;;;;;;4974452;28;20046;-54
2021/12/13 06:30:53;;;;;;;17.45;9.95;;;9.40;99.90;;;;;;4991328;28;20050;-55
2021/12/13 06:33:19;;;;;;;15.45;10.48;;;9.40;99.90;;;;;;4996533;28;20486;-57
2021/12/13 06:35:45;;;;;;;18.20;10.68;;;9.40;99.90;;;;;;4978312;28;20108;-54
2021/12/13 06:38:20;;;;;;;16.75;11.20;;;9.40;99.90;;;;;;4981924;28;20112;-54
2021/12/13 06:40:59;;;;;;;19.52;11.02;;;9.40;99.90;;;;;;4978451;28;20092;-56
2021/12/13 06:43:31;;;;;;;15.45;11.45;;;9.40;99.90;;;;;;4976720;28;20093;-54
2021/12/13 06:45:59;;;;;;;17.45;11.00;;;9.40;99.90;;;;;;4987183;28;20034;-55
2021/12/13 06:48:41;;;;;;;19.73;11.80;;;9.40;99.90;;;;;;4968479;28;20041;-58
2021/12/13 06:51:10;;;;;;;18.95;11.85;;;9.40;99.90;;;;;;4967059;28;20046;-54
2021/12/13 06:53:37;;;;;;;17.15;11.93;;;9.40;99.90;;;;;;4979193;28;20069;-56
2021/12/13 06:56:23;;;;;;;21.33;12.35;;;9.40;99.90;;;;;;4996678;28;20273;-54
2021/12/13 06:58:53;;;;;;;21.52;13.55;;;9.40;99.90;;;;;;4946442;28;20111;-56
2021/12/13 07:01:19;;;;;;;19.35;12.65;;;9.40;99.90;;;;;;4958806;28;20046;-56
2021/12/13 07:04:01;;;;;;;20.52;13.90;;;9.40;99.90;;;;;;4974949;28;20444;-57
2021/12/13 07:06:28;;;;;;;20.13;12.77;;;9.40;99.90;;;;;;4968225;28;20424;-56
2021/12/13 07:09:24;;;;;;;21.30;13.07;;;9.40;99.90;;;;;;4967104;28;20905;-56
2021/12/13 07:11:57;;;;;;;22.40;13.57;;;9.40;99.90;;;;;;4948108;28;20489;-57
2021/12/13 07:14:38;;;;;;;21.92;14.05;;;9.40;99.90;;;;;;5007688;22;20164;-64
2021/12/13 07:17:25;;;;;;;22.35;14.07;;;9.40;99.90;;;;;;4997537;28;20045;-65
2021/12/13 07:19:52;;;;;;;25.13;14.68;;;9.40;99.90;;;;;;5011036;28;20057;-64
2021/12/13 07:22:24;;;;;;;20.83;13.65;;;9.40;99.90;;;;;;5012151;28;20048;-64
2021/12/13 07:25:03;;;;;;;20.75;13.73;;;9.40;99.90;;;;;;5015253;28;20108;-64
2021/12/13 07:27:33;;;;;;;20.55;14.30;;;9.40;99.90;;;;;;5018906;28;20048;-64
2021/12/13 07:30:07;;;;;;;22.52;14.35;;;9.40;99.90;;;;;;4998352;28;20076;-64
2021/12/13 07:32:46;;;;;;;21.50;13.98;;;9.40;99.90;;;;;;5006003;28;20064;-64
2021/12/13 07:35:35;;;;;;;20.95;15.13;;;9.40;99.90;;;;;;5014766;28;20037;-65
2021/12/13 07:38:05;;;;;;;24.40;15.13;;;9.40;99.90;;;;;;5014334;28;20036;-64
2021/12/13 07:40:55;;;;;;;27.33;15.43;;;9.40;99.90;;;;;;5019703;28;20051;-64
2021/12/13 07:43:27;;;;;;;22.48;15.10;;;9.40;99.90;;;;;;5001171;28;20180;-64
2021/12/13 07:46:10;;;;;;;20.73;15.30;;;9.40;99.90;;;;;;5031640;28;20029;-65
2021/12/13 07:48:52;;;;;;;24.85;15.82;;;9.40;99.90;;;;;;5007208;28;20475;-64
2021/12/13 07:51:30;;;;;;;23.08;14.98;;;9.40;99.90;;;;;;5016772;28;20073;-64
2021/12/13 07:54:00;;;;;;;23.80;16.10;;;9.40;99.90;;;;;;5016704;28;20051;-64
2021/12/13 07:56:40;;;;;;;20.60;15.23;;;9.40;99.90;;;;;;5018808;28;20088;-64
2021/12/13 07:59:09;;;;;;;22.02;15.45;;;9.40;99.90;;;;;;5000403;28;20048;-64
2021/12/13 08:01:59;;;;;;;20.23;15.27;;;9.40;99.90;;;;;;4998221;28;20064;-64
2021/12/13 08:04:49;;;;;;;22.98;14.85;;;9.40;99.90;;;;;;4996688;28;20068;-64
2021/12/13 08:07:28;;;;;;;20.92;14.70;;;9.40;99.90;;;;;;4992771;28;20049;-64
2021/12/13 08:10:04;;;;;;;21.33;15.05;;;9.40;99.90;;;;;;5006933;28;20041;-64
2021/12/13 08:12:40;;;;;;;17.83;12.25;;;9.40;99.90;;;;;;5011322;28;20068;-65
2021/12/13 08:15:16;;;;;;;21.35;14.30;;;9.40;99.90;;;;;;4996528;28;20076;-64
2021/12/13 08:18:01;;;;;;;20.30;13.85;;;9.40;99.90;;;;;;5016586;28;20037;-64
2021/12/13 08:20:45;;;;;;;19.08;13.63;;;9.40;99.90;;;;;;5010684;28;20044;-64
2021/12/13 08:23:54;;;;;;;20.88;12.95;;;9.40;99.90;;;;;;5014135;28;20057;-64
2021/12/13 08:26:29;;;;;;;20.08;13.45;;;9.40;99.90;;;;;;5003704;28;20045;-65
2021/12/13 08:28:58;;;;;;;18.10;13.20;;;9.40;99.90;;;;;;5021922;28;20037;-64
2021/12/13 08:31:28;;;;;;;19.55;13.18;;;9.40;99.90;;;;;;5003697;28;20518;-64
2021/12/13 08:34:02;;;;;;;18.40;12.68;;;9.40;99.90;;;;;;4994410;28;20314;-64
2021/12/13 08:36:35;;;;;;;;;;;9.40;99.90;;;;;;5039262;28;20417;-64
2021/12/13 08:39:15;;;;;;;19.35;13.25;;;9.40;99.90;;;;;;5010907;28;20240;-65
2021/12/13 08:41:46;;;;;;;17.83;13.07;;;9.40;99.90;;;;;;5005654;28;20073;-65
2021/12/13 08:44:12;;;;;;;18.88;13.43;;;9.40;99.90;;;;;;5000475;28;20120;-65
2021/12/13 08:46:55;;;;;;;17.80;12.70;;;9.40;99.90;;;;;;4989818;28;20107;-65
2021/12/13 08:49:29;;;;;;;21.20;12.32;;;9.40;99.90;;;;;;5013460;28;20408;-65
2021/12/13 08:52:04;;;;;;;;;;;9.40;99.90;;;;;;4988973;28;20045;-65
2021/12/13 08:54:42;;;;;;;20.60;12.55;;;9.40;99.90;;;;;;5018930;28;20399;-65
2021/12/13 08:57:49;;;;;;;17.38;12.05;;;9.40;99.90;;;;;;5006864;28;20037;-65
2021/12/13 09:00:36;;;;;;;16.15;11.95;;;9.40;99.90;;;;;;5013579;28;20474;-65
2021/12/13 09:03:23;;;;;;;16.98;12.63;;;9.40;99.90;;;;;;5016489;28;20041;-66
2021/12/13 09:06:16;;;;;;;20.08;13.45;;;9.40;99.90;;;;;;5016771;28;20215;-65
2021/12/13 09:08:45;;;;;;;19.45;12.30;;;9.50;99.90;;;;;;5013678;28;20037;-65
2021/12/13 09:11:32;;;;;;;18.23;12.70;;;9.50;99.90;;;;;;4995358;28;20048;-66
2021/12/13 09:13:58;;;;;;;20.05;12.82;;;9.50;99.90;;;;;;5006059;28;20033;-66
2021/12/13 09:16:54;;;;;;;16.92;12.32;;;9.50;99.90;;;;;;5004391;28;20049;-65
2021/12/13 09:19:25;;;;;;;17.77;12.45;;;9.50;99.90;;;;;;5013095;28;20458;-65
2021/12/13 09:21:57;;;;;;;16.92;12.13;;;9.50;99.90;;;;;;5007954;28;20119;-64
2021/12/13 09:24:27;;;;;;;18.05;11.35;;;9.50;99.90;;;;;;5025232;28;20316;-64
2021/12/13 09:26:57;;;;;;;21.08;13.18;;;9.50;99.90;;;;;;5017219;28;20048;-64
2021/12/13 09:29:24;;;;;;;18.42;12.38;;;9.60;99.90;;;;;;5001892;28;20053;-65
2021/12/13 09:31:52;;;;;;;17.42;12.45;;;9.60;99.90;;;;;;4992483;28;20037;-65
2021/12/13 09:34:20;;;;;;;21.88;13.55;;;9.60;99.90;;;;;;4991473;28;20064;-66
2021/12/13 09:36:50;;;;;;;17.42;12.65;;;9.60;99.90;;;;;;4995859;28;20377;-66
2021/12/13 09:39:24;;;;;;;16.92;12.00;;;9.60;99.90;;;;;;5008292;28;20041;-66
2021/12/13 09:41:52;;;;;;;17.02;11.93;;;9.60;99.90;;;;;;5003084;28;20053;-66
2021/12/13 09:44:21;;;;;;;18.92;12.15;;;9.60;99.90;;;;;;5025293;28;20515;-63
2021/12/13 09:47:10;;;;;;;21.27;12.85;;;9.60;99.90;;;;;;4997072;28;20045;-63
2021/12/13 09:49:42;;;;;;;16.48;11.73;;;9.60;99.90;;;;;;5028677;28;20053;-63
2021/12/13 09:52:35;;;;;;;17.02;11.57;;;9.60;99.90;;;;;;5022289;28;20060;-65
2021/12/13 09:55:13;;;;;;;17.27;11.48;;;9.60;99.90;;;;;;5016618;28;20034;-63
2021/12/13 09:58:03;;;;;;;20.63;12.18;;;9.60;99.90;;;;;;5014782;28;20045;-65
2021/12/13 10:00:54;;;;;;;15.57;11.43;;;9.60;99.90;;;;;;5005219;28;20124;-63
2021/12/13 10:03:31;;;;;;;18.73;11.80;;;9.70;99.90;;;;;;5006798;28;20079;-63
2021/12/13 10:06:02;;;;;;;20.13;11.93;;;9.70;99.90;;;;;;5015821;28;20068;-64
2021/12/13 10:08:46;;;;;;;18.13;11.23;;;9.70;99.90;;;;;;5017896;28;20076;-64
2021/12/13 10:11:17;;;;;;;14.55;11.13;;;9.80;99.90;;;;;;5006890;28;20044;-65
2021/12/13 10:13:44;;;;;;;15.30;11.20;;;9.80;99.90;;;;;;5017683;28;20041;-65
2021/12/13 10:16:22;;;;;;;15.88;11.30;;;9.80;99.90;;;;;;5020578;28;20043;-65
2021/12/13 10:18:51;;;;;;;18.40;12.02;;;9.80;99.90;;;;;;5019106;28;20049;-64
2021/12/13 10:21:23;;;;;;;17.20;10.80;;;9.90;99.90;;;;;;5001905;28;20301;-65
2021/12/13 10:23:53;;;;;;;16.85;11.20;;;9.80;99.90;;;;;;5024237;28;20120;-65
2021/12/13 10:26:20;;;;;;;20.85;12.13;;;9.80;99.90;;;;;;5016563;28;20049;-65
2021/12/13 10:28:58;;;;;;;17.25;12.38;;;9.80;99.90;;;;;;5006313;28;20431;-65
2021/12/13 10:31:40;;;;;;;19.83;12.63;;;9.90;99.90;;;;;;5013756;28;20707;-65
2021/12/13 10:34:11;;;;;;;21.00;13.98;;;9.90;99.90;;;;;;5002512;28;20045;-65
2021/12/13 10:36:39;;;;;;;20.55;12.73;;;9.80;99.90;;;;;;5014003;28;20044;-64
2021/12/13 10:39:14;;;;;;;21.00;14.00;;;9.80;99.90;;;;;;5002469;28;20048;-65
2021/12/13 10:41:45;;;;;;;17.85;13.57;;;9.90;99.90;;;;;;5021123;28;20087;-64
2021/12/13 10:44:25;;;;;;;19.38;14.65;;;9.80;99.90;;;;;;5007521;28;20145;-64
2021/12/13 10:46:52;;;;;;;22.25;15.43;;;9.80;99.90;;;;;;5002788;28;20038;-64
2021/12/13 10:49:21;;;;;;;20.92;14.35;;;9.90;99.90;;;;;;5003767;28;20510;-65
2021/12/13 10:51:56;;;;;;;21.42;14.45;;;9.90;99.90;;;;;;5017155;28;20276;-65
2021/12/13 10:54:30;;;;;;;23.20;14.50;;;9.90;99.90;;;;;;5004276;28;20074;-65
2021/12/13 10:57:08;;;;;;;23.05;14.90;;;9.90;99.90;;;;;;5019356;28;20043;-65
2021/12/13 10:59:34;;;;;;;22.88;15.25;;;9.90;99.90;;;;;;5008925;28;20124;-65
2021/12/13 11:02:06;;;;;;;22.88;14.77;;;10.00;99.90;;;;;;5003648;28;20049;-64
2021/12/13 11:04:41;;;;;;;23.10;14.85;;;10.00;99.90;;;;;;5010544;28;20094;-65
2021/12/13 11:07:10;;;;;;;20.00;14.32;;;10.00;99.90;;;;;;5014614;28;20052;-65
2021/12/13 11:09:38;;;;;;;24.45;16.00;;;10.00;99.90;;;;;;5007220;28;20073;-65
2021/12/13 11:12:33;;;;;;;27.45;17.20;;;10.00;99.90;;;;;;5026308;28;20136;-64
2021/12/13 11:15:03;;;;;;;26.73;16.95;;;10.00;99.90;;;;;;4982707;28;20033;-64
2021/12/13 11:17:32;;;;;;;31.00;17.33;;;10.00;99.90;;;;;;5002939;28;20052;-65
2021/12/13 11:20:11;;;;;;;25.17;17.38;;;10.00;99.90;;;;;;5024182;28;20088;-65
2021/12/13 11:22:37;;;;;;;25.98;18.88;;;10.00;99.90;;;;;;5008689;28;20420;-65
2021/12/13 11:25:12;;;;;;;27.20;18.27;;;10.00;99.90;;;;;;5026365;28;20072;-65
2021/12/13 11:27:38;;;;;;;30.77;19.38;;;9.90;99.90;;;;;;5005504;28;20076;-65
2021/12/13 11:30:11;;;;;;;33.40;20.02;;;9.90;99.90;;;;;;5007191;28;20399;-65
2021/12/13 11:32:37;;;;;;;29.23;19.55;;;9.90;99.90;;;;;;4992493;28;20049;-65
2021/12/13 11:35:15;;;;;;;29.45;19.63;;;9.80;99.90;;;;;;5003353;28;20045;-65
2021/12/13 11:38:20;;;;;;;32.45;21.20;;;9.80;99.90;;;;;;5005863;28;20056;-65
2021/12/13 11:41:09;;;;;;;32.65;20.10;;;9.90;99.90;;;;;;5011348;28;20033;-64
2021/12/13 11:44:12;;;;;;;30.70;19.88;;;9.90;99.90;;;;;;5024187;28;20037;-67
2021/12/13 11:47:15;;;;;;;29.83;19.73;;;9.80;99.90;;;;;;5006838;28;20123;-65
2021/12/13 11:50:09;;;;;;;30.48;19.08;;;9.90;99.90;;;;;;5003666;28;20506;-64
2021/12/13 11:53:09;;;;;;;39.85;20.77;;;9.90;99.90;;;;;;5001078;28;20785;-66
2021/12/13 11:56:02;;;;;;;31.40;20.20;;;9.90;99.90;;;;;;4981713;28;20044;-65
2021/12/13 11:59:09;;;;;;;30.60;18.55;;;9.80;99.90;;;;;;5006584;28;23274;-64
2021/12/13 12:02:04;;;;;;;29.02;19.23;;;9.80;99.90;;;;;;4977036;28;20063;-66
2021/12/13 12:04:48;;;;;;;;;;;9.80;99.90;;;;;;5006359;28;20281;-64
2021/12/13 12:07:14;;;;;;;25.35;17.38;;;9.80;99.90;;;;;;5015219;28;19925;-66
2021/12/13 12:10:14;;;;;;;25.17;17.45;;;9.80;99.90;;;;;;5015599;28;20103;-66
2021/12/13 12:12:45;;;;;;;26.67;16.50;;;9.90;99.90;;;;;;4996215;28;20045;-64
2021/12/13 12:15:12;;;;;;;28.00;16.52;;;9.90;99.90;;;;;;5003656;28;20047;-66
2021/12/13 12:17:38;;;;;;;24.17;16.90;;;9.90;99.90;;;;;;4971424;28;20480;-63
2021/12/13 12:20:11;;;;;;;26.45;16.63;;;10.00;99.90;;;;;;4999870;28;20226;-64
2021/12/13 12:22:59;;;;;;;26.77;16.88;;;10.00;99.90;;;;;;5011541;28;20469;-64
2021/12/13 12:25:29;;;;;;;26.65;16.35;;;10.00;99.90;;;;;;5004809;28;20033;-63
2021/12/13 12:27:59;;;;;;;24.88;16.48;;;10.00;99.90;;;;;;5017922;28;20407;-65
2021/12/13 12:30:31;;;;;;;27.25;16.15;;;10.00;99.90;;;;;;5003055;28;20128;-63
2021/12/13 12:33:06;;;;;;;24.40;15.80;;;10.10;99.90;;;;;;5012699;28;20496;-65
2021/12/13 12:35:34;;;;;;;22.52;16.50;;;10.10;99.90;;;;;;5010307;28;20040;-65
2021/12/13 12:38:33;;;;;;;25.73;17.20;;;10.10;99.90;;;;;;4997144;28;20075;-65
2021/12/13 12:41:11;;;;;;;22.70;15.88;;;10.10;99.90;;;;;;5020598;28;20037;-65
2021/12/13 12:43:51;;;;;;;24.20;15.77;;;10.10;99.90;;;;;;5018812;28;20065;-65
2021/12/13 12:46:20;;;;;;;24.20;15.73;;;10.10;99.90;;;;;;5000446;28;20126;-64
2021/12/13 12:48:53;;;;;;;27.33;17.02;;;10.10;99.90;;;;;;4996876;28;20045;-64
2021/12/13 12:51:31;;;;;;;25.27;17.00;;;10.10;99.90;;;;;;5006404;28;20133;-66
2021/12/13 12:54:05;;;;;;;23.50;16.35;;;10.20;99.90;;;;;;5025354;28;20034;-63
2021/12/13 12:56:36;;;;;;;;;;;10.20;99.90;;;;;;5006275;28;20863;-64
2021/12/13 12:59:17;;;;;;;25.80;16.02;;;10.20;99.90;;;;;;5007777;28;20067;-65
2021/12/13 13:01:53;;;;;;;24.10;16.05;;;10.20;99.90;;;;;;5002352;28;20095;-65
2021/12/13 13:04:32;;;;;;;24.67;15.82;;;10.20;99.90;;;;;;5003885;28;21397;-65
2021/12/13 13:07:13;;;;;;;22.13;15.00;;;10.20;99.90;;;;;;4993417;28;20048;-65
2021/12/13 13:09:58;;;;;;;24.75;15.65;;;10.20;99.90;;;;;;4996369;28;20045;-65
2021/12/13 13:12:33;;;;;;;25.50;16.17;;;10.30;99.90;;;;;;5001918;28;20188;-63
2021/12/13 13:15:04;;;;;;;23.88;16.05;;;10.30;99.90;;;;;;4980995;23;20081;-55
2021/12/13 13:17:33;;;;;;;23.25;16.02;;;10.30;99.90;;;;;;4978164;28;20041;-56
2021/12/13 13:20:20;;;;;;;25.40;16.20;;;10.30;99.90;;;;;;4971093;28;20038;-59
2021/12/13 13:22:48;;;;;;;27.35;15.38;;;10.30;99.90;;;;;;4992754;28;20057;-56
2021/12/13 13:25:20;;;;;;;23.23;16.25;;;10.30;99.90;;;;;;4996708;28;20050;-56
2021/12/13 13:27:47;;;;;;;25.75;15.02;;;10.30;99.90;;;;;;4998682;28;20072;-57
2021/12/13 13:30:28;;;;;;;22.02;15.20;;;10.30;99.90;;;;;;5001810;28;20114;-58
2021/12/13 13:32:55;;;;;;;25.40;15.57;;;10.30;99.90;;;;;;4985267;28;20046;-57
2021/12/13 13:35:21;;;;;;;25.52;16.67;;;10.20;99.90;;;;;;4999661;28;20076;-56